sensor_id;sensor_type;location;lat;lon;timestamp;P1;durP1;ratioP1;P2;durP2;ratioP2
42702;SDS011;28341;52.064;4.920;2024-02-16T00:01:39;7.15;;;4.57;;
42702;SDS011;28341;52.064;4.920;2024-02-16T00:03:40;8.90;;;4.40;;
42702;SDS011;28341;52.064;4.920;2024-02-16T00:05:46;8.45;;;4.03;;
42702;SDS011;28341;52.064;4.920;2024-02-16T00:07:47;7.25;;;4.47;;
42702;SDS011;28341;52.064;4.920;2024-02-16T00:09:52;10.55;;;4.47;;
42702;SDS011;28341;52.064;4.920;2024-02-16T00:11:57;5.75;;;4.05;;
42702;SDS011;28341;52.064;4.920;2024-02-16T00:14:01;8.32;;;4.50;;
42702;SDS011;28341;52.064;4.920;2024-02-16T00:16:06;11.07;;;5.05;;
42702;SDS011;28341;52.064;4.920;2024-02-16T00:18:11;8.00;;;4.30;;
42702;SDS011;28341;52.064;4.920;2024-02-16T00:20:15;5.75;;;4.40;;
42702;SDS011;28341;52.064;4.920;2024-02-16T00:22:22;7.72;;;4.47;;
42702;SDS011;28341;52.064;4.920;2024-02-16T00:24:27;6.70;;;4.20;;
42702;SDS011;28341;52.064;4.920;2024-02-16T00:26:32;6.70;;;4.15;;
42702;SDS011;28341;52.064;4.920;2024-02-16T00:28:36;10.27;;;4.70;;
42702;SDS011;28341;52.064;4.920;2024-02-16T00:30:44;8.90;;;3.90;;
42702;SDS011;28341;52.064;4.920;2024-02-16T00:32:49;8.30;;;4.53;;
42702;SDS011;28341;52.064;4.920;2024-02-16T00:34:52;9.25;;;4.40;;
42702;SDS011;28341;52.064;4.920;2024-02-16T00:36:57;9.60;;;4.03;;
42702;SDS011;28341;52.064;4.920;2024-02-16T00:39:01;7.18;;;4.35;;
42702;SDS011;28341;52.064;4.920;2024-02-16T00:41:06;6.93;;;4.40;;
42702;SDS011;28341;52.064;4.920;2024-02-16T00:43:11;6.75;;;4.03;;
42702;SDS011;28341;52.064;4.920;2024-02-16T00:45:15;6.30;;;3.92;;
42702;SDS011;28341;52.064;4.920;2024-02-16T00:47:22;5.38;;;4.35;;
42702;SDS011;28341;52.064;4.920;2024-02-16T00:49:27;7.97;;;4.10;;
42702;SDS011;28341;52.064;4.920;2024-02-16T00:51:32;11.18;;;4.55;;
42702;SDS011;28341;52.064;4.920;2024-02-16T00:53:36;6.30;;;4.30;;
42702;SDS011;28341;52.064;4.920;2024-02-16T00:55:40;9.30;;;4.82;;
42702;SDS011;28341;52.064;4.920;2024-02-16T00:57:45;9.60;;;4.10;;
42702;SDS011;28341;52.064;4.920;2024-02-16T00:59:50;7.18;;;4.50;;
42702;SDS011;28341;52.064;4.920;2024-02-16T01:01:55;7.68;;;4.40;;
42702;SDS011;28341;52.064;4.920;2024-02-16T01:04:02;9.05;;;4.30;;
42702;SDS011;28341;52.064;4.920;2024-02-16T01:06:04;6.35;;;4.53;;
42702;SDS011;28341;52.064;4.920;2024-02-16T01:08:10;6.70;;;4.57;;
42702;SDS011;28341;52.064;4.920;2024-02-16T01:10:15;6.03;;;4.13;;
42702;SDS011;28341;52.064;4.920;2024-02-16T01:12:19;9.98;;;4.85;;
42702;SDS011;28341;52.064;4.920;2024-02-16T01:14:23;10.05;;;4.88;;
42702;SDS011;28341;52.064;4.920;2024-02-16T01:16:28;6.63;;;3.85;;
42702;SDS011;28341;52.064;4.920;2024-02-16T01:18:32;8.63;;;4.22;;
42702;SDS011;28341;52.064;4.920;2024-02-16T01:20:40;8.27;;;4.15;;
42702;SDS011;28341;52.064;4.920;2024-02-16T01:22:45;7.25;;;3.90;;
42702;SDS011;28341;52.064;4.920;2024-02-16T01:24:49;7.13;;;4.57;;
42702;SDS011;28341;52.064;4.920;2024-02-16T01:26:53;6.38;;;3.85;;
42702;SDS011;28341;52.064;4.920;2024-02-16T01:28:58;10.27;;;4.70;;
42702;SDS011;28341;52.064;4.920;2024-02-16T01:31:03;7.13;;;4.32;;
42702;SDS011;28341;52.064;4.920;2024-02-16T01:33:10;6.45;;;4.43;;
42702;SDS011;28341;52.064;4.920;2024-02-16T01:35:14;7.35;;;4.00;;
42702;SDS011;28341;52.064;4.920;2024-02-16T01:37:22;5.28;;;4.22;;
42702;SDS011;28341;52.064;4.920;2024-02-16T01:39:26;7.85;;;4.13;;
42702;SDS011;28341;52.064;4.920;2024-02-16T01:41:31;7.75;;;4.38;;
42702;SDS011;28341;52.064;4.920;2024-02-16T01:43:35;6.35;;;4.05;;
42702;SDS011;28341;52.064;4.920;2024-02-16T01:45:40;9.55;;;5.00;;
42702;SDS011;28341;52.064;4.920;2024-02-16T01:47:44;9.93;;;4.50;;
42702;SDS011;28341;52.064;4.920;2024-02-16T01:49:51;8.70;;;4.60;;
42702;SDS011;28341;52.064;4.920;2024-02-16T01:51:55;6.82;;;4.35;;
42702;SDS011;28341;52.064;4.920;2024-02-16T01:54:02;5.90;;;4.15;;
42702;SDS011;28341;52.064;4.920;2024-02-16T01:56:07;10.02;;;4.10;;
42702;SDS011;28341;52.064;4.920;2024-02-16T01:58:12;4.80;;;4.00;;
42702;SDS011;28341;52.064;4.920;2024-02-16T02:00:17;7.90;;;4.47;;
42702;SDS011;28341;52.064;4.920;2024-02-16T02:02:22;7.65;;;4.35;;
42702;SDS011;28341;52.064;4.920;2024-02-16T02:04:24;7.32;;;4.45;;
42702;SDS011;28341;52.064;4.920;2024-02-16T02:06:28;5.35;;;3.67;;
42702;SDS011;28341;52.064;4.920;2024-02-16T02:08:32;6.53;;;3.92;;
42702;SDS011;28341;52.064;4.920;2024-02-16T02:10:39;9.85;;;3.88;;
42702;SDS011;28341;52.064;4.920;2024-02-16T02:12:42;7.82;;;4.20;;
42702;SDS011;28341;52.064;4.920;2024-02-16T02:14:46;8.80;;;3.85;;
42702;SDS011;28341;52.064;4.920;2024-02-16T02:16:51;9.07;;;4.15;;
42702;SDS011;28341;52.064;4.920;2024-02-16T02:18:55;7.57;;;4.15;;
42702;SDS011;28341;52.064;4.920;2024-02-16T02:21:00;7.38;;;4.05;;
42702;SDS011;28341;52.064;4.920;2024-02-16T02:23:07;7.18;;;4.50;;
42702;SDS011;28341;52.064;4.920;2024-02-16T02:25:12;9.35;;;4.22;;
42702;SDS011;28341;52.064;4.920;2024-02-16T02:27:16;8.65;;;4.22;;
42702;SDS011;28341;52.064;4.920;2024-02-16T02:29:21;9.60;;;4.00;;
42702;SDS011;28341;52.064;4.920;2024-02-16T02:31:25;8.02;;;4.05;;
42702;SDS011;28341;52.064;4.920;2024-02-16T02:33:30;7.90;;;4.50;;
42702;SDS011;28341;52.064;4.920;2024-02-16T02:35:34;7.50;;;4.05;;
42702;SDS011;28341;52.064;4.920;2024-02-16T02:37:36;8.63;;;3.95;;
42702;SDS011;28341;52.064;4.920;2024-02-16T02:39:44;7.05;;;4.07;;
42702;SDS011;28341;52.064;4.920;2024-02-16T02:41:48;10.07;;;4.65;;
42702;SDS011;28341;52.064;4.920;2024-02-16T02:43:53;6.80;;;4.45;;
42702;SDS011;28341;52.064;4.920;2024-02-16T02:45:57;6.68;;;3.90;;
42702;SDS011;28341;52.064;4.920;2024-02-16T02:48:01;5.28;;;4.20;;
42702;SDS011;28341;52.064;4.920;2024-02-16T02:50:07;6.95;;;4.45;;
42702;SDS011;28341;52.064;4.920;2024-02-16T02:52:12;6.90;;;4.47;;
42702;SDS011;28341;52.064;4.920;2024-02-16T02:54:17;5.72;;;4.38;;
42702;SDS011;28341;52.064;4.920;2024-02-16T02:56:24;6.32;;;4.32;;
42702;SDS011;28341;52.064;4.920;2024-02-16T02:58:28;6.60;;;4.20;;
42702;SDS011;28341;52.064;4.920;2024-02-16T03:00:33;7.03;;;4.40;;
42702;SDS011;28341;52.064;4.920;2024-02-16T03:02:38;7.07;;;4.55;;
42702;SDS011;28341;52.064;4.920;2024-02-16T03:04:44;6.82;;;3.80;;
42702;SDS011;28341;52.064;4.920;2024-02-16T03:06:51;11.40;;;4.47;;
42702;SDS011;28341;52.064;4.920;2024-02-16T03:08:55;6.63;;;4.13;;
42702;SDS011;28341;52.064;4.920;2024-02-16T03:11:00;7.15;;;4.68;;
42702;SDS011;28341;52.064;4.920;2024-02-16T03:13:07;7.72;;;4.68;;
42702;SDS011;28341;52.064;4.920;2024-02-16T03:15:13;6.63;;;4.13;;
42702;SDS011;28341;52.064;4.920;2024-02-16T03:17:18;9.32;;;4.43;;
42702;SDS011;28341;52.064;4.920;2024-02-16T03:19:20;7.75;;;4.57;;
42702;SDS011;28341;52.064;4.920;2024-02-16T03:21:24;7.30;;;4.32;;
42702;SDS011;28341;52.064;4.920;2024-02-16T03:23:28;6.28;;;4.28;;
42702;SDS011;28341;52.064;4.920;2024-02-16T03:25:33;7.65;;;4.30;;
42702;SDS011;28341;52.064;4.920;2024-02-16T03:27:38;8.98;;;4.60;;
42702;SDS011;28341;52.064;4.920;2024-02-16T03:29:45;8.48;;;4.40;;
42702;SDS011;28341;52.064;4.920;2024-02-16T03:31:50;7.63;;;4.20;;
42702;SDS011;28341;52.064;4.920;2024-02-16T03:33:54;6.28;;;4.47;;
42702;SDS011;28341;52.064;4.920;2024-02-16T03:35:59;8.05;;;4.90;;
42702;SDS011;28341;52.064;4.920;2024-02-16T03:38:04;6.25;;;4.55;;
42702;SDS011;28341;52.064;4.920;2024-02-16T03:40:09;8.77;;;4.57;;
42702;SDS011;28341;52.064;4.920;2024-02-16T03:42:14;5.18;;;4.15;;
42702;SDS011;28341;52.064;4.920;2024-02-16T03:44:21;6.03;;;4.28;;
42702;SDS011;28341;52.064;4.920;2024-02-16T03:46:28;6.05;;;4.25;;
42702;SDS011;28341;52.064;4.920;2024-02-16T03:48:32;10.68;;;4.57;;
42702;SDS011;28341;52.064;4.920;2024-02-16T03:50:34;7.65;;;4.60;;
42702;SDS011;28341;52.064;4.920;2024-02-16T03:52:39;5.75;;;4.57;;
42702;SDS011;28341;52.064;4.920;2024-02-16T03:54:40;6.65;;;4.20;;
42702;SDS011;28341;52.064;4.920;2024-02-16T03:56:48;7.05;;;4.80;;
42702;SDS011;28341;52.064;4.920;2024-02-16T03:58:56;9.02;;;4.60;;
42702;SDS011;28341;52.064;4.920;2024-02-16T04:01:01;8.48;;;4.43;;
42702;SDS011;28341;52.064;4.920;2024-02-16T04:03:09;7.10;;;4.53;;
42702;SDS011;28341;52.064;4.920;2024-02-16T04:05:14;8.23;;;4.28;;
42702;SDS011;28341;52.064;4.920;2024-02-16T04:07:18;8.85;;;4.35;;
42702;SDS011;28341;52.064;4.920;2024-02-16T04:09:23;6.25;;;4.18;;
42702;SDS011;28341;52.064;4.920;2024-02-16T04:11:27;7.80;;;4.60;;
42702;SDS011;28341;52.064;4.920;2024-02-16T04:13:32;9.95;;;4.80;;
42702;SDS011;28341;52.064;4.920;2024-02-16T04:15:36;7.25;;;4.53;;
42702;SDS011;28341;52.064;4.920;2024-02-16T04:17:38;6.20;;;4.43;;
42702;SDS011;28341;52.064;4.920;2024-02-16T04:19:45;9.52;;;4.95;;
42702;SDS011;28341;52.064;4.920;2024-02-16T04:21:50;6.15;;;4.53;;
42702;SDS011;28341;52.064;4.920;2024-02-16T04:23:54;8.75;;;4.60;;
42702;SDS011;28341;52.064;4.920;2024-02-16T04:25:59;6.75;;;4.30;;
42702;SDS011;28341;52.064;4.920;2024-02-16T04:28:04;7.78;;;4.45;;
42702;SDS011;28341;52.064;4.920;2024-02-16T04:30:10;8.38;;;4.60;;
42702;SDS011;28341;52.064;4.920;2024-02-16T04:32:14;5.82;;;4.53;;
42702;SDS011;28341;52.064;4.920;2024-02-16T04:34:19;8.98;;;5.10;;
42702;SDS011;28341;52.064;4.920;2024-02-16T04:36:26;8.38;;;5.63;;
42702;SDS011;28341;52.064;4.920;2024-02-16T04:38:30;6.95;;;5.10;;
42702;SDS011;28341;52.064;4.920;2024-02-16T04:40:36;6.75;;;4.50;;
42702;SDS011;28341;52.064;4.920;2024-02-16T04:42:41;6.30;;;4.63;;
42702;SDS011;28341;52.064;4.920;2024-02-16T04:44:45;7.28;;;4.53;;
42702;SDS011;28341;52.064;4.920;2024-02-16T04:46:50;8.93;;;4.65;;
42702;SDS011;28341;52.064;4.920;2024-02-16T04:48:55;9.85;;;4.93;;
42702;SDS011;28341;52.064;4.920;2024-02-16T04:51:00;9.77;;;5.18;;
42702;SDS011;28341;52.064;4.920;2024-02-16T04:53:07;11.65;;;6.13;;
42702;SDS011;28341;52.064;4.920;2024-02-16T04:55:11;10.43;;;5.50;;
42702;SDS011;28341;52.064;4.920;2024-02-16T04:57:16;7.82;;;5.35;;
42702;SDS011;28341;52.064;4.920;2024-02-16T04:59:18;8.88;;;5.70;;
42702;SDS011;28341;52.064;4.920;2024-02-16T05:01:22;7.70;;;4.93;;
42702;SDS011;28341;52.064;4.920;2024-02-16T05:03:29;9.82;;;5.60;;
42702;SDS011;28341;52.064;4.920;2024-02-16T05:05:33;8.85;;;5.38;;
42702;SDS011;28341;52.064;4.920;2024-02-16T05:07:37;7.13;;;4.95;;
42702;SDS011;28341;52.064;4.920;2024-02-16T05:09:44;8.25;;;4.97;;
42702;SDS011;28341;52.064;4.920;2024-02-16T05:11:50;8.00;;;5.13;;
42702;SDS011;28341;52.064;4.920;2024-02-16T05:13:54;11.15;;;4.75;;
42702;SDS011;28341;52.064;4.920;2024-02-16T05:15:58;7.47;;;4.97;;
42702;SDS011;28341;52.064;4.920;2024-02-16T05:18:04;8.45;;;4.90;;
42702;SDS011;28341;52.064;4.920;2024-02-16T05:20:11;7.25;;;4.90;;
42702;SDS011;28341;52.064;4.920;2024-02-16T05:22:19;6.65;;;5.07;;
42702;SDS011;28341;52.064;4.920;2024-02-16T05:24:24;6.45;;;4.80;;
42702;SDS011;28341;52.064;4.920;2024-02-16T05:26:31;6.55;;;5.43;;
42702;SDS011;28341;52.064;4.920;2024-02-16T05:28:36;7.22;;;5.28;;
42702;SDS011;28341;52.064;4.920;2024-02-16T05:30:40;7.70;;;5.00;;
42702;SDS011;28341;52.064;4.920;2024-02-16T05:32:45;8.68;;;5.05;;
42702;SDS011;28341;52.064;4.920;2024-02-16T05:34:50;12.57;;;5.82;;
42702;SDS011;28341;52.064;4.920;2024-02-16T05:36:54;8.73;;;4.90;;
42702;SDS011;28341;52.064;4.920;2024-02-16T05:38:58;10.77;;;5.45;;
42702;SDS011;28341;52.064;4.920;2024-02-16T05:41:10;8.43;;;5.38;;
42702;SDS011;28341;52.064;4.920;2024-02-16T05:43:17;10.75;;;5.30;;
42702;SDS011;28341;52.064;4.920;2024-02-16T05:45:19;6.82;;;4.95;;
42702;SDS011;28341;52.064;4.920;2024-02-16T05:47:24;5.57;;;4.97;;
42702;SDS011;28341;52.064;4.920;2024-02-16T05:49:28;8.75;;;5.30;;
42702;SDS011;28341;52.064;4.920;2024-02-16T05:51:34;8.15;;;4.90;;
42702;SDS011;28341;52.064;4.920;2024-02-16T05:53:36;11.45;;;5.28;;
42702;SDS011;28341;52.064;4.920;2024-02-16T05:55:40;9.07;;;5.68;;
42702;SDS011;28341;52.064;4.920;2024-02-16T05:57:45;8.65;;;5.32;;
42702;SDS011;28341;52.064;4.920;2024-02-16T05:59:52;8.75;;;5.50;;
42702;SDS011;28341;52.064;4.920;2024-02-16T06:01:56;9.93;;;5.85;;
42702;SDS011;28341;52.064;4.920;2024-02-16T06:04:01;6.78;;;5.32;;
42702;SDS011;28341;52.064;4.920;2024-02-16T06:06:05;6.63;;;5.20;;
42702;SDS011;28341;52.064;4.920;2024-02-16T06:08:10;6.82;;;4.65;;
42702;SDS011;28341;52.064;4.920;2024-02-16T06:10:15;7.10;;;5.30;;
42702;SDS011;28341;52.064;4.920;2024-02-16T06:12:20;7.10;;;5.32;;
42702;SDS011;28341;52.064;4.920;2024-02-16T06:14:24;8.68;;;5.13;;
42702;SDS011;28341;52.064;4.920;2024-02-16T06:16:31;11.18;;;5.35;;
42702;SDS011;28341;52.064;4.920;2024-02-16T06:18:36;9.18;;;5.35;;
42702;SDS011;28341;52.064;4.920;2024-02-16T06:20:42;7.55;;;5.00;;
42702;SDS011;28341;52.064;4.920;2024-02-16T06:22:47;7.80;;;5.47;;
42702;SDS011;28341;52.064;4.920;2024-02-16T06:24:51;10.18;;;4.90;;
42702;SDS011;28341;52.064;4.920;2024-02-16T06:26:56;11.27;;;5.18;;
42702;SDS011;28341;52.064;4.920;2024-02-16T06:29:01;8.20;;;5.25;;
42702;SDS011;28341;52.064;4.920;2024-02-16T06:31:05;6.40;;;5.00;;
42702;SDS011;28341;52.064;4.920;2024-02-16T06:33:12;9.13;;;6.03;;
42702;SDS011;28341;52.064;4.920;2024-02-16T06:35:14;9.18;;;5.60;;
42702;SDS011;28341;52.064;4.920;2024-02-16T06:37:18;8.65;;;6.03;;
42702;SDS011;28341;52.064;4.920;2024-02-16T06:39:23;10.63;;;6.13;;
42702;SDS011;28341;52.064;4.920;2024-02-16T06:41:27;10.02;;;5.65;;
42702;SDS011;28341;52.064;4.920;2024-02-16T06:43:31;20.50;;;14.18;;
42702;SDS011;28341;52.064;4.920;2024-02-16T06:45:36;19.48;;;14.48;;
42702;SDS011;28341;52.064;4.920;2024-02-16T06:47:40;23.15;;;15.32;;
42702;SDS011;28341;52.064;4.920;2024-02-16T06:49:48;12.80;;;6.97;;
42702;SDS011;28341;52.064;4.920;2024-02-16T06:51:53;9.30;;;5.93;;
42702;SDS011;28341;52.064;4.920;2024-02-16T06:53:57;9.75;;;5.68;;
42702;SDS011;28341;52.064;4.920;2024-02-16T06:56:02;8.43;;;5.30;;
42702;SDS011;28341;52.064;4.920;2024-02-16T06:58:08;8.25;;;5.63;;
42702;SDS011;28341;52.064;4.920;2024-02-16T07:00:13;9.23;;;6.07;;
42702;SDS011;28341;52.064;4.920;2024-02-16T07:02:20;9.07;;;5.65;;
42702;SDS011;28341;52.064;4.920;2024-02-16T07:04:25;12.50;;;6.03;;
42702;SDS011;28341;52.064;4.920;2024-02-16T07:06:29;9.38;;;5.90;;
42702;SDS011;28341;52.064;4.920;2024-02-16T07:08:34;7.22;;;5.82;;
42702;SDS011;28341;52.064;4.920;2024-02-16T07:10:39;8.85;;;5.60;;
42702;SDS011;28341;52.064;4.920;2024-02-16T07:12:41;9.93;;;6.22;;
42702;SDS011;28341;52.064;4.920;2024-02-16T07:14:45;9.73;;;6.38;;
42702;SDS011;28341;52.064;4.920;2024-02-16T07:16:50;10.50;;;6.25;;
42702;SDS011;28341;52.064;4.920;2024-02-16T07:18:55;10.25;;;6.22;;
42702;SDS011;28341;52.064;4.920;2024-02-16T07:21:00;8.18;;;5.88;;
42702;SDS011;28341;52.064;4.920;2024-02-16T07:23:07;8.23;;;6.07;;
42702;SDS011;28341;52.064;4.920;2024-02-16T07:25:12;13.68;;;9.70;;
42702;SDS011;28341;52.064;4.920;2024-02-16T07:27:17;23.30;;;15.85;;
42702;SDS011;28341;52.064;4.920;2024-02-16T07:29:22;49.30;;;36.22;;
42702;SDS011;28341;52.064;4.920;2024-02-16T07:31:30;12.85;;;8.63;;
42702;SDS011;28341;52.064;4.920;2024-02-16T07:33:37;10.25;;;7.05;;
42702;SDS011;28341;52.064;4.920;2024-02-16T07:35:41;9.77;;;6.75;;
42702;SDS011;28341;52.064;4.920;2024-02-16T07:37:46;11.15;;;7.28;;
42702;SDS011;28341;52.064;4.920;2024-02-16T07:39:54;11.50;;;6.75;;
42702;SDS011;28341;52.064;4.920;2024-02-16T07:41:59;11.00;;;6.95;;
42702;SDS011;28341;52.064;4.920;2024-02-16T07:44:03;11.20;;;6.88;;
42702;SDS011;28341;52.064;4.920;2024-02-16T07:46:07;10.57;;;7.03;;
42702;SDS011;28341;52.064;4.920;2024-02-16T07:48:09;11.95;;;7.07;;
42702;SDS011;28341;52.064;4.920;2024-02-16T07:50:13;13.27;;;7.07;;
42702;SDS011;28341;52.064;4.920;2024-02-16T07:52:21;12.25;;;7.07;;
42702;SDS011;28341;52.064;4.920;2024-02-16T07:54:25;15.40;;;6.95;;
42702;SDS011;28341;52.064;4.920;2024-02-16T07:56:32;11.00;;;7.25;;
42702;SDS011;28341;52.064;4.920;2024-02-16T07:58:37;11.00;;;6.78;;
42702;SDS011;28341;52.064;4.920;2024-02-16T08:00:42;12.85;;;7.38;;
42702;SDS011;28341;52.064;4.920;2024-02-16T08:02:46;10.27;;;7.35;;
42702;SDS011;28341;52.064;4.920;2024-02-16T08:04:48;9.85;;;7.00;;
42702;SDS011;28341;52.064;4.920;2024-02-16T08:06:53;11.75;;;7.20;;
42702;SDS011;28341;52.064;4.920;2024-02-16T08:08:58;14.75;;;7.60;;
42702;SDS011;28341;52.064;4.920;2024-02-16T08:11:03;10.40;;;6.80;;
42702;SDS011;28341;52.064;4.920;2024-02-16T08:13:10;17.80;;;7.57;;
42702;SDS011;28341;52.064;4.920;2024-02-16T08:15:14;44.25;;;36.97;;
42702;SDS011;28341;52.064;4.920;2024-02-16T08:17:23;33.47;;;22.25;;
42702;SDS011;28341;52.064;4.920;2024-02-16T08:19:31;13.23;;;8.20;;
42702;SDS011;28341;52.064;4.920;2024-02-16T08:21:37;14.93;;;7.82;;
42702;SDS011;28341;52.064;4.920;2024-02-16T08:23:42;11.63;;;7.28;;
42702;SDS011;28341;52.064;4.920;2024-02-16T08:25:46;15.63;;;7.38;;
42702;SDS011;28341;52.064;4.920;2024-02-16T08:27:52;13.52;;;7.28;;
42702;SDS011;28341;52.064;4.920;2024-02-16T08:29:56;11.45;;;6.95;;
42702;SDS011;28341;52.064;4.920;2024-02-16T08:32:02;16.27;;;7.15;;
42702;SDS011;28341;52.064;4.920;2024-02-16T08:34:09;14.77;;;6.65;;
42702;SDS011;28341;52.064;4.920;2024-02-16T08:36:13;10.15;;;6.85;;
42702;SDS011;28341;52.064;4.920;2024-02-16T08:38:18;15.27;;;7.20;;
42702;SDS011;28341;52.064;4.920;2024-02-16T08:40:22;11.18;;;6.85;;
42702;SDS011;28341;52.064;4.920;2024-02-16T08:42:26;12.88;;;6.20;;
42702;SDS011;28341;52.064;4.920;2024-02-16T08:44:31;11.40;;;6.25;;
42702;SDS011;28341;52.064;4.920;2024-02-16T08:46:38;11.35;;;6.22;;
42702;SDS011;28341;52.064;4.920;2024-02-16T08:48:44;14.30;;;6.60;;
42702;SDS011;28341;52.064;4.920;2024-02-16T08:50:48;10.73;;;6.13;;
42702;SDS011;28341;52.064;4.920;2024-02-16T08:52:52;10.63;;;6.30;;
42702;SDS011;28341;52.064;4.920;2024-02-16T08:54:56;11.18;;;6.20;;
42702;SDS011;28341;52.064;4.920;2024-02-16T08:56:58;11.90;;;6.25;;
42702;SDS011;28341;52.064;4.920;2024-02-16T08:59:03;11.65;;;5.88;;
42702;SDS011;28341;52.064;4.920;2024-02-16T09:01:07;12.30;;;6.35;;
42702;SDS011;28341;52.064;4.920;2024-02-16T09:03:15;9.48;;;5.97;;
42702;SDS011;28341;52.064;4.920;2024-02-16T09:05:20;9.23;;;5.93;;
42702;SDS011;28341;52.064;4.920;2024-02-16T09:07:21;11.52;;;6.13;;
42702;SDS011;28341;52.064;4.920;2024-02-16T09:09:26;8.68;;;5.72;;
42702;SDS011;28341;52.064;4.920;2024-02-16T09:11:31;9.25;;;6.00;;
42702;SDS011;28341;52.064;4.920;2024-02-16T09:13:35;12.23;;;5.72;;
42702;SDS011;28341;52.064;4.920;2024-02-16T09:15:39;10.82;;;6.75;;
42702;SDS011;28341;52.064;4.920;2024-02-16T09:17:43;9.70;;;6.10;;
42702;SDS011;28341;52.064;4.920;2024-02-16T09:19:50;11.27;;;6.25;;
42702;SDS011;28341;52.064;4.920;2024-02-16T09:21:52;12.02;;;5.90;;
42702;SDS011;28341;52.064;4.920;2024-02-16T09:23:58;13.07;;;6.40;;
42702;SDS011;28341;52.064;4.920;2024-02-16T09:26:04;9.35;;;5.88;;
42702;SDS011;28341;52.064;4.920;2024-02-16T09:28:11;11.48;;;6.15;;
42702;SDS011;28341;52.064;4.920;2024-02-16T09:30:16;12.60;;;6.85;;
42702;SDS011;28341;52.064;4.920;2024-02-16T09:32:21;15.48;;;5.95;;
42702;SDS011;28341;52.064;4.920;2024-02-16T09:34:26;11.68;;;6.47;;
42702;SDS011;28341;52.064;4.920;2024-02-16T09:36:33;12.75;;;6.60;;
42702;SDS011;28341;52.064;4.920;2024-02-16T09:38:38;12.10;;;6.38;;
42702;SDS011;28341;52.064;4.920;2024-02-16T09:40:42;17.23;;;6.32;;
42702;SDS011;28341;52.064;4.920;2024-02-16T09:42:47;14.15;;;6.68;;
42702;SDS011;28341;52.064;4.920;2024-02-16T09:44:53;13.30;;;6.15;;
42702;SDS011;28341;52.064;4.920;2024-02-16T09:46:58;14.82;;;6.90;;
42702;SDS011;28341;52.064;4.920;2024-02-16T09:49:04;12.43;;;7.07;;
42702;SDS011;28341;52.064;4.920;2024-02-16T09:51:08;16.30;;;7.38;;
42702;SDS011;28341;52.064;4.920;2024-02-16T09:53:15;17.88;;;7.70;;
42702;SDS011;28341;52.064;4.920;2024-02-16T09:55:20;14.45;;;7.53;;
42702;SDS011;28341;52.064;4.920;2024-02-16T09:57:24;18.75;;;9.85;;
42702;SDS011;28341;52.064;4.920;2024-02-16T09:59:26;20.63;;;10.48;;
42702;SDS011;28341;52.064;4.920;2024-02-16T10:01:31;19.63;;;10.48;;
42702;SDS011;28341;52.064;4.920;2024-02-16T10:03:35;21.85;;;10.73;;
42702;SDS011;28341;52.064;4.920;2024-02-16T10:05:39;25.52;;;11.10;;
42702;SDS011;28341;52.064;4.920;2024-02-16T10:07:41;21.80;;;13.38;;
42702;SDS011;28341;52.064;4.920;2024-02-16T10:09:48;22.77;;;13.38;;
42702;SDS011;28341;52.064;4.920;2024-02-16T10:11:50;28.20;;;13.70;;
42702;SDS011;28341;52.064;4.920;2024-02-16T10:13:55;46.15;;;26.23;;
42702;SDS011;28341;52.064;4.920;2024-02-16T10:16:04;26.67;;;15.32;;
42702;SDS011;28341;52.064;4.920;2024-02-16T10:18:11;32.25;;;15.80;;
42702;SDS011;28341;52.064;4.920;2024-02-16T10:20:17;41.90;;;17.25;;
42702;SDS011;28341;52.064;4.920;2024-02-16T10:22:19;29.50;;;15.43;;
42702;SDS011;28341;52.064;4.920;2024-02-16T10:24:23;29.67;;;15.15;;
42702;SDS011;28341;52.064;4.920;2024-02-16T10:26:30;29.70;;;15.52;;
42702;SDS011;28341;52.064;4.920;2024-02-16T10:28:37;25.52;;;15.25;;
42702;SDS011;28341;52.064;4.920;2024-02-16T10:30:43;30.33;;;15.68;;
42702;SDS011;28341;52.064;4.920;2024-02-16T10:32:48;29.45;;;16.00;;
42702;SDS011;28341;52.064;4.920;2024-02-16T10:34:50;29.98;;;16.65;;
42702;SDS011;28341;52.064;4.920;2024-02-16T10:36:56;28.88;;;15.98;;
42702;SDS011;28341;52.064;4.920;2024-02-16T10:39:01;33.83;;;17.02;;
42702;SDS011;28341;52.064;4.920;2024-02-16T10:41:08;34.47;;;18.35;;
42702;SDS011;28341;52.064;4.920;2024-02-16T10:43:15;33.00;;;17.10;;
42702;SDS011;28341;52.064;4.920;2024-02-16T10:45:22;32.45;;;17.38;;
42702;SDS011;28341;52.064;4.920;2024-02-16T10:47:26;27.38;;;16.60;;
42702;SDS011;28341;52.064;4.920;2024-02-16T10:49:31;37.35;;;17.27;;
42702;SDS011;28341;52.064;4.920;2024-02-16T10:51:36;31.80;;;17.23;;
42702;SDS011;28341;52.064;4.920;2024-02-16T10:53:43;30.92;;;16.92;;
42702;SDS011;28341;52.064;4.920;2024-02-16T10:55:47;33.95;;;17.48;;
42702;SDS011;28341;52.064;4.920;2024-02-16T10:57:51;32.55;;;17.48;;
42702;SDS011;28341;52.064;4.920;2024-02-16T10:59:58;27.85;;;16.30;;
42702;SDS011;28341;52.064;4.920;2024-02-16T11:02:02;25.77;;;15.13;;
42702;SDS011;28341;52.064;4.920;2024-02-16T11:04:07;28.80;;;15.80;;
42702;SDS011;28341;52.064;4.920;2024-02-16T11:06:15;25.00;;;16.35;;
42702;SDS011;28341;52.064;4.920;2024-02-16T11:08:19;27.90;;;15.45;;
42702;SDS011;28341;52.064;4.920;2024-02-16T11:10:26;28.38;;;16.30;;
42702;SDS011;28341;52.064;4.920;2024-02-16T11:12:32;29.40;;;16.35;;
42702;SDS011;28341;52.064;4.920;2024-02-16T11:14:41;26.23;;;15.40;;
42702;SDS011;28341;52.064;4.920;2024-02-16T11:16:49;32.83;;;16.33;;
42702;SDS011;28341;52.064;4.920;2024-02-16T11:18:56;28.60;;;15.50;;
42702;SDS011;28341;52.064;4.920;2024-02-16T11:21:04;24.80;;;15.18;;
42702;SDS011;28341;52.064;4.920;2024-02-16T11:23:09;27.08;;;15.55;;
42702;SDS011;28341;52.064;4.920;2024-02-16T11:25:13;24.23;;;14.60;;
42702;SDS011;28341;52.064;4.920;2024-02-16T11:27:17;24.83;;;13.95;;
42702;SDS011;28341;52.064;4.920;2024-02-16T11:29:22;24.90;;;15.27;;
42702;SDS011;28341;52.064;4.920;2024-02-16T11:31:27;26.27;;;13.93;;
42702;SDS011;28341;52.064;4.920;2024-02-16T11:33:33;22.65;;;14.82;;
42702;SDS011;28341;52.064;4.920;2024-02-16T11:35:38;25.42;;;14.85;;
42702;SDS011;28341;52.064;4.920;2024-02-16T11:37:43;24.77;;;14.57;;
42702;SDS011;28341;52.064;4.920;2024-02-16T11:39:45;26.77;;;15.02;;
42702;SDS011;28341;52.064;4.920;2024-02-16T11:41:58;24.20;;;14.52;;
42702;SDS011;28341;52.064;4.920;2024-02-16T11:44:02;22.20;;;12.52;;
42702;SDS011;28341;52.064;4.920;2024-02-16T11:46:13;21.13;;;13.27;;
42702;SDS011;28341;52.064;4.920;2024-02-16T11:48:19;19.60;;;12.73;;
42702;SDS011;28341;52.064;4.920;2024-02-16T11:50:27;17.27;;;11.02;;
42702;SDS011;28341;52.064;4.920;2024-02-16T11:52:29;14.25;;;9.85;;
42702;SDS011;28341;52.064;4.920;2024-02-16T11:54:34;22.60;;;17.73;;
42702;SDS011;28341;52.064;4.920;2024-02-16T11:56:39;10.40;;;7.82;;
42702;SDS011;28341;52.064;4.920;2024-02-16T11:58:45;11.25;;;6.78;;
42702;SDS011;28341;52.064;4.920;2024-02-16T12:00:50;10.52;;;6.90;;
42702;SDS011;28341;52.064;4.920;2024-02-16T12:03:00;12.25;;;6.53;;
42702;SDS011;28341;52.064;4.920;2024-02-16T12:05:05;8.35;;;5.57;;
42702;SDS011;28341;52.064;4.920;2024-02-16T12:07:13;8.10;;;5.60;;
42702;SDS011;28341;52.064;4.920;2024-02-16T12:09:17;9.50;;;5.60;;
42702;SDS011;28341;52.064;4.920;2024-02-16T12:11:19;9.07;;;5.25;;
42702;SDS011;28341;52.064;4.920;2024-02-16T12:13:23;8.63;;;5.53;;
42702;SDS011;28341;52.064;4.920;2024-02-16T12:15:27;6.97;;;4.95;;
42702;SDS011;28341;52.064;4.920;2024-02-16T12:17:33;8.77;;;5.25;;
42702;SDS011;28341;52.064;4.920;2024-02-16T12:19:34;9.82;;;5.03;;
42702;SDS011;28341;52.064;4.920;2024-02-16T12:21:38;7.75;;;5.05;;
42702;SDS011;28341;52.064;4.920;2024-02-16T12:23:45;9.02;;;5.00;;
42702;SDS011;28341;52.064;4.920;2024-02-16T12:25:49;7.10;;;4.78;;
42702;SDS011;28341;52.064;4.920;2024-02-16T12:27:53;7.82;;;4.65;;